createdAt,value
2022-08-17T00:01:37.250Z,47.20
2022-08-17T00:04:21.599Z,47.30
2022-08-17T00:06:49.683Z,47.30
2022-08-17T00:09:19.154Z,47.30
2022-08-17T00:12:35.510Z,47.30
2022-08-17T00:14:36.278Z,47.30
2022-08-17T00:17:06.319Z,47.30
2022-08-17T00:19:35.374Z,47.30
2022-08-17T00:22:35.123Z,47.40
2022-08-17T00:24:54.161Z,47.40
2022-08-17T00:27:21.885Z,47.40
2022-08-17T00:29:49.676Z,47.40
2022-08-17T00:33:12.397Z,47.40
2022-08-17T00:35:08.031Z,47.40
2022-08-17T00:37:35.786Z,47.40
2022-08-17T00:40:03.639Z,47.40
2022-08-17T00:42:31.501Z,47.40
2022-08-17T00:44:59.270Z,47.40
2022-08-17T00:47:27.034Z,47.40
2022-08-17T00:49:54.921Z,47.40
2022-08-17T00:52:25.720Z,47.50
2022-08-17T00:54:54.282Z,47.50
2022-08-17T00:57:23.984Z,47.50
2022-08-17T01:00:01.813Z,47.50
2022-08-17T01:02:34.889Z,47.50
2022-08-17T01:05:09.789Z,47.50
2022-08-17T01:07:38.899Z,47.50
2022-08-17T01:10:07.893Z,47.50
2022-08-17T01:12:56.611Z,47.50
2022-08-17T01:15:24.360Z,47.50
2022-08-17T01:17:52.053Z,47.50
2022-08-17T01:20:19.913Z,47.60
2022-08-17T01:22:49.043Z,47.60
2022-08-17T01:25:16.913Z,47.60
2022-08-17T01:27:44.596Z,47.50
2022-08-17T01:30:57.437Z,47.60
2022-08-17T01:33:00.852Z,47.60
2022-08-17T01:35:28.553Z,47.60
2022-08-17T01:37:57.544Z,47.60
2022-08-17T01:40:28.441Z,47.60
2022-08-17T01:42:57.132Z,47.60
2022-08-17T01:45:26.511Z,47.60
2022-08-17T01:47:54.635Z,47.60
2022-08-17T01:50:23.828Z,47.60
2022-08-17T01:52:54.017Z,47.60
2022-08-17T01:55:27.401Z,47.60
2022-08-17T01:57:55.230Z,47.60
2022-08-17T02:00:22.971Z,47.60
2022-08-17T02:02:50.825Z,47.60
2022-08-17T02:05:19.254Z,47.60
2022-08-17T02:08:00.102Z,47.50
2022-08-17T02:10:33.866Z,47.50
2022-08-17T02:13:02.263Z,47.50
2022-08-17T02:15:30.019Z,47.50
2022-08-17T02:17:57.756Z,47.50
2022-08-17T02:20:41.213Z,47.50
2022-08-17T02:23:11.750Z,47.50
2022-08-17T02:25:41.175Z,47.50
2022-08-17T02:28:08.912Z,47.50
2022-08-17T02:31:01.693Z,47.50
2022-08-17T02:33:25.420Z,47.50
2022-08-17T02:36:11.685Z,47.50
2022-08-17T02:38:39.710Z,47.50
2022-08-17T02:41:08.889Z,47.50
2022-08-17T02:43:36.666Z,47.50
2022-08-17T02:46:04.332Z,47.50
2022-08-17T02:48:32.166Z,47.50
2022-08-17T02:51:00.008Z,47.50
2022-08-17T02:53:27.706Z,47.60
2022-08-17T02:56:03.503Z,47.60
2022-08-17T02:58:34.587Z,47.60
2022-08-17T03:01:03.942Z,47.60
2022-08-17T03:03:31.626Z,47.60
2022-08-17T03:05:59.368Z,47.60
2022-08-17T03:08:27.182Z,47.60
2022-08-17T03:10:55.066Z,47.60
2022-08-17T03:13:22.754Z,47.60
2022-08-17T03:15:51.900Z,47.60
2022-08-17T03:18:24.703Z,47.60
2022-08-17T03:20:54.393Z,47.60
2022-08-17T03:23:24.390Z,47.60
2022-08-17T03:25:54.006Z,47.60
2022-08-17T03:28:21.950Z,47.50
2022-08-17T03:30:51.656Z,47.50
2022-08-17T03:33:19.494Z,47.50
2022-08-17T03:35:47.401Z,47.60
2022-08-17T03:38:17.004Z,47.60
2022-08-17T03:40:58.703Z,47.50
2022-08-17T03:43:28.299Z,47.50
2022-08-17T03:46:27.964Z,47.60
2022-08-17T03:49:14.799Z,47.60
2022-08-17T03:52:08.547Z,47.50
2022-08-17T03:54:53.876Z,47.50
2022-08-17T03:57:21.577Z,47.50
2022-08-17T03:59:49.415Z,47.60
2022-08-17T04:02:19.511Z,47.60
2022-08-17T04:04:50.541Z,47.60
2022-08-17T04:07:18.247Z,47.60
2022-08-17T04:09:45.927Z,47.60
2022-08-17T04:12:15.095Z,47.60
2022-08-17T04:14:51.676Z,47.60
2022-08-17T04:17:23.592Z,47.60
2022-08-17T04:19:51.326Z,47.70
2022-08-17T04:22:33.264Z,47.60
2022-08-17T04:25:15.535Z,47.60
2022-08-17T04:27:43.240Z,47.60
2022-08-17T04:30:12.139Z,47.60
2022-08-17T04:33:04.552Z,47.60
2022-08-17T04:35:36.364Z,47.60
2022-08-17T04:38:04.106Z,47.60
2022-08-17T04:40:49.696Z,47.60
2022-08-17T04:43:19.028Z,47.60
2022-08-17T04:45:55.422Z,47.60
2022-08-17T04:48:35.822Z,47.60
2022-08-17T04:51:06.034Z,47.60
2022-08-17T04:53:33.745Z,47.60
2022-08-17T04:56:01.445Z,47.60
2022-08-17T04:58:29.248Z,47.60
2022-08-17T05:00:57.065Z,47.60
2022-08-17T05:03:26.116Z,47.60
2022-08-17T05:05:53.881Z,47.70
2022-08-17T05:08:22.152Z,47.80
2022-08-17T05:10:50.229Z,47.70
2022-08-17T05:13:19.183Z,47.70
2022-08-17T05:15:48.095Z,47.70
2022-08-17T05:18:16.532Z,47.70
2022-08-17T05:20:45.617Z,47.70
2022-08-17T05:23:16.164Z,47.70
2022-08-17T05:25:45.660Z,47.60
2022-08-17T05:28:15.992Z,47.60
2022-08-17T05:30:44.000Z,47.60
2022-08-17T05:33:13.968Z,47.70
2022-08-17T05:35:44.383Z,47.70
2022-08-17T05:38:13.523Z,47.60
2022-08-17T05:40:41.400Z,47.60
2022-08-17T05:43:10.304Z,47.60
2022-08-17T05:45:55.211Z,47.60
2022-08-17T05:48:39.339Z,47.70
2022-08-17T05:51:34.926Z,48.30
2022-08-17T05:54:10.830Z,47.60
2022-08-17T05:56:51.253Z,47.70
2022-08-17T05:59:24.862Z,47.60
2022-08-17T06:01:56.047Z,47.70
2022-08-17T06:04:26.889Z,47.70
2022-08-17T06:07:02.735Z,47.70
2022-08-17T06:09:38.003Z,47.70
2022-08-17T06:12:19.000Z,47.70
2022-08-17T06:14:58.339Z,47.70
2022-08-17T06:17:26.988Z,47.70
2022-08-17T06:19:56.973Z,47.70
2022-08-17T06:22:27.215Z,47.70
2022-08-17T06:24:57.819Z,47.70
2022-08-17T06:27:30.512Z,47.70
2022-08-17T06:30:01.171Z,47.70
2022-08-17T06:32:29.348Z,47.70
2022-08-17T06:34:57.477Z,47.70
2022-08-17T06:37:48.699Z,47.70
2022-08-17T06:40:29.607Z,47.70
2022-08-17T06:43:06.907Z,47.70
2022-08-17T06:45:36.516Z,47.70
2022-08-17T06:48:07.785Z,47.70
2022-08-17T06:50:37.019Z,47.70
2022-08-17T06:53:06.521Z,47.70
2022-08-17T06:55:38.463Z,47.70
2022-08-17T06:58:16.021Z,47.70
2022-08-17T07:00:45.997Z,47.70
2022-08-17T07:03:15.484Z,47.70
2022-08-17T07:05:44.984Z,47.70
2022-08-17T07:08:16.942Z,47.70
2022-08-17T07:10:48.661Z,47.70
2022-08-17T07:13:24.773Z,47.70
2022-08-17T07:15:57.075Z,47.70
2022-08-17T07:18:26.072Z,47.70
2022-08-17T07:20:56.299Z,47.70
2022-08-17T07:23:26.626Z,47.60
2022-08-17T07:26:01.317Z,47.60
2022-08-17T07:28:29.204Z,47.60
2022-08-17T07:30:56.882Z,47.60
2022-08-17T07:33:25.846Z,47.50
2022-08-17T07:35:53.804Z,47.60
2022-08-17T07:38:25.146Z,47.50
2022-08-17T07:41:03.668Z,47.60
2022-08-17T07:43:31.613Z,47.50
2022-08-17T07:46:34.404Z,47.50
2022-08-17T07:49:18.322Z,47.50
2022-08-17T07:51:57.020Z,47.50
2022-08-17T07:54:33.212Z,47.50
2022-08-17T07:57:03.296Z,47.50
2022-08-17T07:59:33.843Z,47.50
2022-08-17T08:02:06.002Z,47.50
2022-08-17T08:04:59.164Z,47.40
2022-08-17T08:07:26.361Z,47.50
2022-08-17T08:10:02.372Z,47.50
2022-08-17T08:12:34.270Z,47.40
2022-08-17T08:15:04.261Z,47.40
2022-08-17T08:17:35.585Z,47.40
2022-08-17T08:20:19.685Z,47.40
2022-08-17T08:22:58.888Z,47.40
2022-08-17T08:25:32.680Z,47.40
2022-08-17T08:28:08.703Z,47.40
2022-08-17T08:30:38.512Z,47.40
2022-08-17T08:33:17.242Z,47.30
2022-08-17T08:35:49.319Z,47.40
2022-08-17T08:38:23.385Z,47.40
2022-08-17T08:40:57.377Z,47.40
2022-08-17T08:43:30.588Z,47.30
2022-08-17T08:46:01.641Z,47.30
2022-08-17T08:48:56.065Z,47.30
2022-08-17T08:51:31.135Z,47.20
2022-08-17T08:54:02.160Z,47.30
2022-08-17T08:56:35.301Z,47.30
2022-08-17T08:59:08.519Z,47.30
2022-08-17T09:01:38.291Z,47.30
2022-08-17T09:04:30.236Z,47.20
2022-08-17T09:07:12.440Z,47.20
2022-08-17T09:09:45.205Z,47.10
2022-08-17T09:12:15.292Z,47.00
2022-08-17T09:14:48.005Z,47.00
2022-08-17T09:17:17.195Z,46.90
2022-08-17T09:19:48.912Z,46.90
2022-08-17T09:22:25.392Z,46.70
2022-08-17T09:24:57.037Z,46.70
2022-08-17T09:27:28.136Z,46.70
2022-08-17T09:29:59.883Z,46.60
2022-08-17T09:32:32.358Z,46.60
2022-08-17T09:35:01.879Z,46.50
2022-08-17T09:37:31.594Z,46.60
2022-08-17T09:40:07.892Z,46.50
2022-08-17T09:42:40.979Z,46.50
2022-08-17T09:45:25.131Z,46.30
2022-08-17T09:47:54.862Z,46.30
2022-08-17T09:51:03.408Z,46.40
2022-08-17T09:53:15.097Z,46.40
2022-08-17T09:55:52.837Z,46.40
2022-08-17T09:58:29.080Z,46.40
2022-08-17T10:01:00.641Z,46.30
2022-08-17T10:03:35.192Z,46.30
2022-08-17T10:06:06.845Z,46.30
2022-08-17T10:08:39.036Z,46.30
2022-08-17T10:11:33.354Z,46.30
2022-08-17T10:14:36.997Z,46.10
2022-08-17T10:16:56.777Z,46.10
2022-08-17T10:19:26.309Z,46.10
2022-08-17T10:22:32.321Z,46.10
2022-08-17T10:25:22.149Z,46.10
2022-08-17T10:27:53.452Z,46.10
2022-08-17T10:30:22.916Z,46.20
2022-08-17T10:32:54.967Z,46.10
2022-08-17T10:35:30.267Z,46.10
2022-08-17T10:38:26.940Z,46.00
2022-08-17T10:40:57.198Z,46.00
2022-08-17T10:43:32.808Z,46.00
2022-08-17T10:46:30.075Z,46.00
2022-08-17T10:49:29.269Z,46.00
2022-08-17T10:51:57.831Z,45.90
2022-08-17T10:54:37.100Z,46.00
2022-08-17T10:57:05.114Z,45.90
2022-08-17T10:59:50.632Z,46.60
2022-08-17T11:02:27.940Z,46.00
2022-08-17T11:05:19.881Z,46.00
2022-08-17T11:07:58.426Z,45.80
2022-08-17T11:10:51.731Z,46.00
2022-08-17T11:13:27.998Z,46.00
2022-08-17T11:16:04.842Z,46.00
2022-08-17T11:18:57.511Z,45.90
2022-08-17T11:21:54.763Z,45.90
2022-08-17T11:24:23.351Z,46.10
2022-08-17T11:27:07.580Z,46.10
2022-08-17T11:29:37.676Z,46.30
2022-08-17T11:32:11.160Z,46.40
2022-08-17T11:34:39.041Z,46.50
2022-08-17T11:37:13.122Z,46.50
2022-08-17T11:40:09.031Z,46.50
2022-08-17T11:43:00.935Z,46.40
2022-08-17T11:45:47.776Z,46.70
2022-08-17T11:48:35.322Z,46.70
2022-08-17T11:51:28.451Z,46.70
2022-08-17T11:54:33.217Z,46.60
2022-08-17T11:57:02.153Z,46.60
2022-08-17T11:59:59.057Z,47.50
2022-08-17T12:02:47.454Z,47.40
2022-08-17T12:05:33.158Z,47.00
2022-08-17T12:08:08.347Z,46.90
2022-08-17T12:10:40.304Z,47.10
2022-08-17T12:13:11.234Z,47.00
2022-08-17T12:15:49.328Z,47.10
2022-08-17T12:18:20.973Z,47.30
2022-08-17T12:20:56.522Z,47.80
2022-08-17T12:23:26.604Z,47.60
2022-08-17T12:25:57.960Z,47.80
2022-08-17T12:28:26.985Z,47.90
2022-08-17T12:30:54.772Z,47.80
2022-08-17T12:33:25.654Z,47.90
2022-08-17T12:36:00.014Z,47.80
2022-08-17T12:38:32.312Z,47.80
2022-08-17T12:41:24.243Z,47.70
2022-08-17T12:44:01.389Z,47.60
2022-08-17T12:46:29.242Z,48.10
2022-08-17T12:49:12.629Z,48.10
2022-08-17T12:51:44.268Z,48.50
2022-08-17T12:54:23.252Z,48.20
2022-08-17T12:56:52.263Z,48.10
2022-08-17T12:59:29.723Z,48.10
2022-08-17T13:01:58.289Z,47.80
2022-08-17T13:04:26.585Z,48.20
2022-08-17T13:06:59.865Z,48.10
2022-08-17T13:09:35.594Z,47.60
2022-08-17T13:12:10.830Z,48.10
2022-08-17T13:14:38.548Z,48.50
2022-08-17T13:17:12.682Z,49.00
2022-08-17T13:19:48.172Z,49.60
2022-08-17T13:22:15.854Z,49.60
2022-08-17T13:24:52.948Z,50.00
2022-08-17T13:27:22.799Z,49.70
2022-08-17T13:29:53.403Z,49.50
2022-08-17T13:32:22.946Z,50.20
2022-08-17T13:35:13.082Z,50.60
2022-08-17T13:37:40.693Z,50.10
2022-08-17T13:40:30.666Z,50.30
2022-08-17T13:42:59.780Z,51.20
2022-08-17T13:45:39.618Z,50.90
2022-08-17T13:48:11.139Z,51.20
2022-08-17T13:50:42.860Z,50.90
2022-08-17T13:53:21.462Z,50.20
2022-08-17T13:55:50.845Z,50.60
2022-08-17T13:58:25.512Z,50.50
2022-08-17T14:00:53.341Z,50.50
2022-08-17T14:03:21.260Z,50.30
2022-08-17T14:05:50.016Z,50.70
2022-08-17T14:08:18.737Z,51.10
2022-08-17T14:10:57.401Z,50.90
2022-08-17T14:13:26.420Z,50.90
2022-08-17T14:15:56.491Z,50.90
2022-08-17T14:18:55.722Z,50.80
2022-08-17T14:21:12.538Z,50.90
2022-08-17T14:23:40.830Z,50.40
2022-08-17T14:26:11.473Z,50.40
2022-08-17T14:28:45.895Z,50.50
2022-08-17T14:31:22.589Z,50.50
2022-08-17T14:33:50.382Z,50.40
2022-08-17T14:36:18.093Z,50.50
2022-08-17T14:38:45.965Z,50.90
2022-08-17T14:41:20.055Z,50.90
2022-08-17T14:43:52.885Z,50.70
2022-08-17T14:46:20.692Z,50.60
2022-08-17T14:48:51.701Z,50.60
2022-08-17T14:51:21.773Z,50.50
2022-08-17T14:53:49.681Z,50.40
2022-08-17T14:56:17.490Z,50.30
2022-08-17T14:58:45.433Z,50.20
2022-08-17T15:01:14.607Z,49.90
2022-08-17T15:03:42.682Z,49.90
2022-08-17T15:06:14.549Z,49.90
2022-08-17T15:08:44.247Z,49.90
2022-08-17T15:11:14.406Z,49.70
2022-08-17T15:13:52.200Z,49.50
2022-08-17T15:16:23.330Z,49.60
2022-08-17T15:18:52.648Z,49.40
2022-08-17T15:21:20.434Z,49.20
2022-08-17T15:23:48.179Z,49.00
2022-08-17T15:26:16.774Z,48.80
2022-08-17T15:28:44.515Z,48.60
2022-08-17T15:31:32.045Z,48.50
2022-08-17T15:34:00.469Z,48.60
2022-08-17T15:36:28.391Z,48.60
2022-08-17T15:38:56.120Z,48.60
2022-08-17T15:41:23.913Z,48.60
2022-08-17T15:43:51.859Z,48.80
2022-08-17T15:46:20.944Z,48.80
2022-08-17T15:48:50.892Z,48.90
2022-08-17T15:51:20.299Z,49.20
2022-08-17T15:53:49.353Z,49.20
2022-08-17T15:56:17.391Z,49.20
2022-08-17T15:58:46.634Z,49.30
2022-08-17T16:01:18.792Z,49.30
2022-08-17T16:04:26.680Z,49.40
2022-08-17T16:06:53.444Z,49.40
2022-08-17T16:09:21.160Z,49.50
2022-08-17T16:11:52.044Z,49.50
2022-08-17T16:14:24.113Z,49.60
2022-08-17T16:16:52.764Z,49.50
2022-08-17T16:19:22.105Z,49.70
2022-08-17T16:21:49.881Z,49.60
2022-08-17T16:24:17.607Z,49.60
2022-08-17T16:26:45.717Z,49.50
2022-08-17T16:29:14.095Z,49.50
2022-08-17T16:31:42.472Z,49.50
2022-08-17T16:34:17.899Z,49.50
2022-08-17T16:36:55.080Z,49.50
2022-08-17T16:39:25.438Z,49.50
2022-08-17T16:41:53.300Z,49.50
2022-08-17T16:44:21.786Z,49.50
2022-08-17T16:46:50.731Z,49.50
2022-08-17T16:49:35.969Z,49.50
2022-08-17T16:52:09.560Z,50.10
2022-08-17T16:54:39.025Z,49.50
2022-08-17T16:57:06.908Z,49.40
2022-08-17T16:59:41.839Z,49.50
2022-08-17T17:02:14.761Z,49.40
2022-08-17T17:04:47.506Z,49.50
2022-08-17T17:07:32.349Z,49.60
2022-08-17T17:10:00.521Z,49.60
2022-08-17T17:12:35.047Z,49.60
2022-08-17T17:15:22.106Z,49.50
2022-08-17T17:17:50.728Z,49.60
2022-08-17T17:20:21.802Z,49.60
2022-08-17T17:22:55.504Z,49.60
2022-08-17T17:25:27.254Z,49.60
2022-08-17T17:28:00.912Z,49.60
2022-08-17T17:30:30.964Z,49.60
2022-08-17T17:33:00.948Z,49.50
2022-08-17T17:35:31.654Z,49.60
2022-08-17T17:38:06.173Z,49.50
2022-08-17T17:40:36.871Z,49.50
2022-08-17T17:43:34.757Z,50.10
2022-08-17T17:45:55.429Z,49.50
2022-08-17T17:48:23.605Z,49.50
2022-08-17T17:51:03.977Z,49.40
2022-08-17T17:53:43.477Z,49.40
2022-08-17T17:56:18.804Z,49.50
2022-08-17T17:59:03.341Z,49.40
2022-08-17T18:01:39.669Z,49.30
2022-08-17T18:04:20.688Z,49.30
2022-08-17T18:06:57.025Z,49.30
2022-08-17T18:09:34.143Z,49.30
2022-08-17T18:12:08.979Z,49.30
2022-08-17T18:14:46.592Z,49.30
2022-08-17T18:17:15.142Z,49.30
2022-08-17T18:19:42.899Z,49.20
2022-08-17T18:22:14.176Z,49.30
2022-08-17T18:24:45.111Z,49.20
2022-08-17T18:27:21.183Z,49.10
2022-08-17T18:29:49.177Z,49.20
2022-08-17T18:32:34.220Z,49.20
2022-08-17T18:35:27.817Z,49.20
2022-08-17T18:37:56.903Z,49.20
2022-08-17T18:40:35.728Z,49.20
2022-08-17T18:43:10.349Z,49.10
2022-08-17T18:45:41.769Z,49.30
2022-08-17T18:48:24.409Z,49.30
2022-08-17T18:50:53.473Z,49.20
2022-08-17T18:53:34.126Z,49.20
2022-08-17T18:56:24.167Z,49.30
2022-08-17T18:58:59.801Z,49.30
2022-08-17T19:01:47.606Z,49.30
2022-08-17T19:04:34.090Z,49.20
2022-08-17T19:07:07.414Z,49.30
2022-08-17T19:09:36.742Z,49.30
2022-08-17T19:12:07.456Z,49.30
2022-08-17T19:14:35.479Z,49.30
2022-08-17T19:17:06.322Z,49.40
2022-08-17T19:19:36.790Z,49.40
2022-08-17T19:22:13.108Z,49.50
2022-08-17T19:24:47.543Z,49.50
2022-08-17T19:27:20.375Z,49.50
2022-08-17T19:29:51.093Z,49.60
2022-08-17T19:32:23.178Z,49.50
2022-08-17T19:34:50.996Z,49.60
2022-08-17T19:37:27.429Z,49.50
2022-08-17T19:39:59.010Z,49.70
2022-08-17T19:42:32.982Z,49.60
2022-08-17T19:45:05.323Z,49.70
2022-08-17T19:47:54.398Z,49.80
2022-08-17T19:50:30.135Z,49.80
2022-08-17T19:53:00.155Z,49.80
2022-08-17T19:55:32.809Z,49.80
2022-08-17T19:58:06.061Z,49.80
2022-08-17T20:00:35.965Z,49.90
2022-08-17T20:03:07.572Z,49.90
2022-08-17T20:06:08.778Z,49.90
2022-08-17T20:08:26.162Z,49.90
2022-08-17T20:10:55.411Z,50.00
2022-08-17T20:13:32.845Z,50.00
2022-08-17T20:16:02.327Z,50.00
2022-08-17T20:18:36.525Z,50.00
2022-08-17T20:21:10.028Z,50.00
2022-08-17T20:23:52.965Z,50.00
2022-08-17T20:26:22.914Z,50.00
2022-08-17T20:29:37.182Z,50.00
2022-08-17T20:32:25.177Z,50.00
2022-08-17T20:35:03.998Z,50.10
2022-08-17T20:37:32.884Z,50.10
2022-08-17T20:40:21.425Z,50.10
2022-08-17T20:42:49.205Z,50.10
2022-08-17T20:45:54.333Z,50.00
2022-08-17T20:48:37.633Z,50.10
2022-08-17T20:51:19.571Z,50.00
2022-08-17T20:54:35.101Z,50.10
2022-08-17T20:57:03.240Z,50.10
2022-08-17T21:00:07.072Z,50.00
2022-08-17T21:02:37.013Z,50.00
2022-08-17T21:05:23.051Z,50.00
2022-08-17T21:07:55.908Z,50.00
2022-08-17T21:10:39.002Z,50.00
2022-08-17T21:13:37.435Z,50.10
2022-08-17T21:16:10.168Z,50.10
2022-08-17T21:18:41.472Z,50.10
2022-08-17T21:21:18.533Z,50.10
2022-08-17T21:23:59.256Z,50.10
2022-08-17T21:26:31.046Z,50.10
2022-08-17T21:29:30.158Z,50.00
2022-08-17T21:32:15.864Z,50.00
2022-08-17T21:35:02.259Z,50.00
2022-08-17T21:37:34.800Z,50.00
2022-08-17T21:40:17.954Z,50.00
2022-08-17T21:42:47.755Z,50.00
2022-08-17T21:45:20.727Z,50.00
2022-08-17T21:47:49.080Z,50.00
2022-08-17T21:50:19.368Z,50.00
2022-08-17T21:52:49.522Z,50.00
2022-08-17T21:55:22.511Z,50.00
2022-08-17T21:57:53.073Z,50.00
2022-08-17T22:00:38.151Z,50.00
2022-08-17T22:03:06.449Z,50.00
2022-08-17T22:05:36.217Z,50.00
2022-08-17T22:08:08.639Z,50.00
2022-08-17T22:10:45.453Z,50.00
2022-08-17T22:13:16.498Z,50.00
2022-08-17T22:15:46.930Z,50.00
2022-08-17T22:18:19.461Z,50.00
2022-08-17T22:20:51.406Z,50.00
2022-08-17T22:23:43.464Z,50.00
2022-08-17T22:26:13.212Z,50.00
2022-08-17T22:28:45.477Z,50.00
2022-08-17T22:31:14.485Z,50.00
2022-08-17T22:33:44.761Z,50.00
2022-08-17T22:36:30.818Z,50.00
2022-08-17T22:39:00.709Z,49.90
2022-08-17T22:41:38.809Z,50.00
2022-08-17T22:44:18.346Z,49.90
2022-08-17T22:46:53.004Z,50.00
2022-08-17T22:49:26.576Z,50.00
2022-08-17T22:52:07.886Z,50.00
2022-08-17T22:54:54.679Z,50.00
2022-08-17T22:57:40.313Z,50.00
2022-08-17T23:00:25.647Z,50.00
2022-08-17T23:03:15.104Z,50.00
2022-08-17T23:05:44.840Z,49.90
2022-08-17T23:08:13.410Z,49.90
2022-08-17T23:10:42.767Z,49.90
2022-08-17T23:13:11.886Z,50.10
2022-08-17T23:15:40.417Z,50.20
2022-08-17T23:18:08.278Z,50.30
2022-08-17T23:20:36.482Z,50.30
2022-08-17T23:23:05.479Z,50.20
2022-08-17T23:25:34.118Z,50.10
2022-08-17T23:28:03.996Z,50.10
2022-08-17T23:30:32.215Z,50.10
2022-08-17T23:33:01.115Z,50.10
2022-08-17T23:35:40.489Z,50.10
2022-08-17T23:38:09.901Z,49.90
2022-08-17T23:40:37.754Z,50.60
2022-08-17T23:43:23.937Z,49.90
2022-08-17T23:45:53.984Z,49.90
2022-08-17T23:48:28.555Z,49.90
2022-08-17T23:51:05.769Z,49.90
2022-08-17T23:53:34.907Z,49.90
2022-08-17T23:56:09.623Z,49.90
2022-08-17T23:58:40.091Z,49.90
